Time;durP1;ratioP1;P1;durP2;ratioP2;P2;SDS_P1;SDS_P2;PMS_P1;PMS_P2;Temp;Humidity;BMP_temperature;BMP_pressure;BME280_temperature;BME280_humidity;BME280_pressure;Samples;Min_cycle;Max_cycle;Signal;HPM_P1;HPM_P2
2021/12/21 00:00:37;;;;;;;4.07;2.75;;;;;;;0.42;65.97;100341.97;4471557;32;34265;-65
2021/12/21 00:03:05;;;;;;;3.62;2.00;;;;;;;0.77;65.26;100351.41;4483653;32;34761;-66
2021/12/21 00:05:32;;;;;;;4.40;2.45;;;;;;;0.61;65.03;100344.28;4483730;32;34143;-66
2021/12/21 00:08:01;;;;;;;5.05;2.60;;;;;;;0.68;65.62;100344.44;4466393;32;34776;-66
2021/12/21 00:10:31;;;;;;;3.75;2.40;;;;;;;0.32;65.92;100355.47;4467880;32;34454;-66
2021/12/21 00:19:04;;;;;;;3.65;1.80;;;;;;;-0.40;66.73;100349.91;4469919;32;34646;-66
2021/12/21 00:23:41;;;;;;;2.70;1.90;;;;;;;0.18;64.52;100372.16;4474590;32;33732;-66
2021/12/21 00:26:11;;;;;;;2.78;1.80;;;;;;;0.06;64.40;100368.16;4482655;32;33718;-66
2021/12/21 00:31:17;;;;;;;2.65;1.73;;;;;;;-0.36;65.91;100361.91;4470387;32;34196;-69
2021/12/21 00:33:47;;;;;;;2.60;1.58;;;;;;;0.03;64.11;100361.31;4466295;32;34230;-65
2021/12/21 00:36:17;;;;;;;0.60;0.60;;;;;;;-0.05;64.15;100364.78;4467546;32;33365;-66
2021/12/21 00:38:45;;;;;;;2.78;1.83;;;;;;;-0.45;65.92;100373.56;4474046;32;34619;-66
2021/12/21 00:41:13;;;;;;;3.87;1.80;;;;;;;-0.15;65.07;100380.13;4483258;32;35069;-66
2021/12/21 00:43:41;;;;;;;3.12;1.80;;;;;;;-0.07;64.88;100385.47;4483344;32;34905;-66
2021/12/21 00:46:08;;;;;;;0.75;0.75;;;;;;;0.17;64.02;100378.50;4483130;32;33758;-69
2021/12/21 00:48:37;;;;;;;2.78;1.90;;;;;;;-0.18;64.57;100375.09;4483073;32;34870;-66
2021/12/21 00:51:06;;;;;;;0.60;0.60;;;;;;;0.02;63.83;100372.13;4483322;32;34607;-66
2021/12/21 00:53:36;;;;;;;3.72;1.70;;;;;;;0.43;63.08;100374.81;4482888;32;34080;-65
2021/12/21 00:56:04;;;;;;;2.70;1.83;;;;;;;0.15;63.55;100385.81;4483074;32;33774;-66
2021/12/21 00:58:32;;;;;;;2.65;1.73;;;;;;;0.12;63.70;100396.84;4483119;32;34784;-66
2021/12/21 01:01:03;;;;;;;2.65;1.80;;;;;;;-0.26;65.12;100394.59;4482780;32;34131;-66
2021/12/21 01:03:47;;;;;;;2.67;1.92;;;;;;;0.34;63.10;100401.50;4482944;32;34182;-65
2021/12/21 01:06:25;;;;;;;3.17;1.87;;;;;;;-0.05;65.45;100404.81;4483041;32;33537;-66
2021/12/21 01:11:32;;;;;;;2.60;1.80;;;;;;;0.29;63.76;100400.38;4482590;32;34276;-66
2021/12/21 01:19:10;;;;;;;2.67;1.75;;;;;;;-0.14;64.19;100411.13;4482384;32;34858;-66
2021/12/21 01:21:46;;;;;;;4.15;1.92;;;;;;;-0.45;65.42;100422.38;4483085;32;34165;-66
2021/12/21 01:27:10;;;;;;;1.25;0.93;;;;;;;-0.35;65.04;100424.88;4483367;32;34309;-66
2021/12/21 01:29:50;;;;;;;4.57;2.33;;;;;;;-0.65;66.46;100419.13;4482642;32;34866;-65
2021/12/21 01:35:06;;;;;;;3.85;2.03;;;;;;;-0.50;66.16;100422.00;4482373;32;34017;-66
2021/12/21 01:40:49;;;;;;;3.33;2.03;;;;;;;-0.54;66.17;100425.12;4420215;32;34628;-66
2021/12/21 01:51:24;;;;;;;3.37;2.35;;;;;;;-0.12;64.47;100408.31;4471845;32;34048;-66
2021/12/21 01:53:53;;;;;;;3.28;2.00;;;;;;;-0.40;65.40;100421.06;4484409;32;33839;-66
2021/12/21 01:56:21;;;;;;;3.37;1.98;;;;;;;-0.32;65.44;100419.25;4484705;32;34147;-66
2021/12/21 01:58:49;;;;;;;4.50;2.45;;;;;;;-0.40;65.06;100427.22;4484989;32;33460;-66
2021/12/21 02:01:18;;;;;;;4.53;2.42;;;;;;;-0.68;66.27;100431.91;4484569;32;34905;-65
2021/12/21 02:03:49;;;;;;;4.25;2.55;;;;;;;-0.34;65.30;100429.25;4484869;32;34005;-65
2021/12/21 02:06:20;;;;;;;0.50;0.50;;;;;;;-0.45;64.87;100430.37;4484221;32;34847;-66
2021/12/21 02:08:48;;;;;;;3.62;2.22;;;;;;;-0.95;66.01;100422.25;4484293;32;33667;-65
2021/12/21 02:11:17;;;;;;;4.03;2.20;;;;;;;-0.61;65.30;100424.94;4467719;32;33796;-66
2021/12/21 02:13:48;;;;;;;3.47;2.00;;;;;;;-0.82;64.97;100422.69;4483345;32;34861;-66
2021/12/21 02:16:23;;;;;;;0.50;0.50;;;;;;;-0.22;63.60;100427.97;4484794;32;34271;-66
2021/12/21 02:19:04;;;;;;;3.35;1.90;;;;;;;-0.55;64.34;100420.81;4483986;32;34966;-66
2021/12/21 02:21:39;;;;;;;3.55;2.22;;;;;;;-0.45;63.38;100426.87;4484728;32;34120;-66
2021/12/21 02:24:12;;;;;;;3.40;1.80;;;;;;;-0.48;63.12;100424.50;4483542;32;33996;-65
2021/12/21 02:26:50;;;;;;;3.15;2.05;;;;;;;-0.94;63.55;100423.94;4484432;32;34165;-67
2021/12/21 02:29:30;;;;;;;3.67;1.95;;;;;;;-0.80;63.29;100426.00;4483421;32;34383;-66
2021/12/21 02:31:57;;;;;;;4.60;1.92;;;;;;;-0.52;62.16;100418.69;4484574;32;34941;-66
2021/12/21 02:34:25;;;;;;;3.75;1.65;;;;;;;-0.27;60.65;100414.25;4484285;32;34216;-65
2021/12/21 02:36:55;;;;;;;0.50;0.50;;;;;;;-0.44;61.38;100417.84;4483804;32;33957;-66
2021/12/21 02:39:24;;;;;;;0.40;0.40;;;;;;;-0.46;60.13;100418.00;4484345;32;33801;-65
2021/12/21 02:41:51;;;;;;;2.33;1.40;;;;;;;-0.34;59.34;100428.41;4483926;32;33801;-66
2021/12/21 02:44:19;;;;;;;2.83;1.60;;;;;;;-0.22;59.72;100433.28;4484382;32;34810;-66
2021/12/21 02:46:47;;;;;;;3.53;1.67;;;;;;;0.08;58.45;100440.84;4483929;32;34031;-66
2021/12/21 02:49:15;;;;;;;2.53;1.87;;;;;;;-0.01;58.47;100445.34;4483589;32;33541;-66
2021/12/21 02:51:44;;;;;;;2.75;1.50;;;;;;;0.07;58.50;100455.22;4483709;32;34067;-67
2021/12/21 02:54:13;;;;;;;2.55;1.60;;;;;;;-0.28;59.52;100457.94;4484106;32;33739;-66
2021/12/21 02:56:41;;;;;;;2.67;1.70;;;;;;;0.09;58.37;100454.03;4484190;32;34207;-66
2021/12/21 02:59:09;;;;;;;2.55;1.48;;;;;;;0.15;57.88;100458.72;4483936;32;34655;-66
2021/12/21 03:01:37;;;;;;;1.80;1.35;;;;;;;0.05;58.07;100462.53;4483863;32;33719;-65
2021/12/21 03:04:05;;;;;;;2.70;1.60;;;;;;;-0.48;59.44;100464.50;4484448;32;34220;-65
2021/12/21 03:07:22;;;;;;;0.50;0.50;;;;;;;-0.14;58.37;100466.31;4484223;32;34205;-66
2021/12/21 03:09:43;;;;;;;2.62;1.48;;;;;;;-0.01;58.22;100466.69;4482554;32;33131;-65
2021/12/21 03:14:49;;;;;;;3.60;1.55;;;;;;;-0.08;57.46;100474.50;4483857;32;34746;-65
2021/12/21 03:17:17;;;;;;;3.55;1.48;;;;;;;-0.26;57.42;100479.94;4484256;32;34673;-65
2021/12/21 03:19:44;;;;;;;0.40;0.40;;;;;;;0.02;57.76;100481.53;4483566;32;33812;-66
2021/12/21 03:22:14;;;;;;;3.42;1.65;;;;;;;0.16;57.32;100480.91;4483826;32;34809;-65
2021/12/21 03:24:43;;;;;;;2.55;1.50;;;;;;;-0.14;56.71;100483.12;4484012;32;35122;-66
2021/12/21 03:27:11;;;;;;;3.33;1.52;;;;;;;0.08;57.06;100487.03;4470372;32;34077;-66
2021/12/21 03:29:39;;;;;;;0.50;0.50;;;;;;;-0.40;57.90;100485.88;4483547;32;33658;-65
2021/12/21 03:32:07;;;;;;;2.55;1.50;;;;;;;-0.41;57.91;100484.22;4484399;32;34031;-65
2021/12/21 03:34:35;;;;;;;2.03;1.40;;;;;;;0.09;55.79;100485.22;4483753;32;34311;-67
2021/12/21 03:37:09;;;;;;;1.95;1.30;;;;;;;0.00;56.38;100495.03;4484045;32;34090;-66
2021/12/21 03:39:38;;;;;;;2.45;1.27;;;;;;;0.31;55.57;100495.28;4483264;32;33949;-66
2021/12/21 03:42:07;;;;;;;1.62;1.20;;;;;;;0.23;55.51;100492.59;4484058;32;34022;-66
2021/12/21 03:44:34;;;;;;;2.12;1.37;;;;;;;-0.34;56.96;100505.72;4476828;32;34160;-66
2021/12/21 03:47:03;;;;;;;3.42;1.90;;;;;;;0.04;56.44;100503.53;4468397;32;34023;-66
2021/12/21 03:52:07;;;;;;;2.95;1.50;;;;;;;-0.34;56.68;100511.06;4483517;32;33799;-66
2021/12/21 03:54:37;;;;;;;2.40;1.42;;;;;;;-0.15;55.81;100504.63;4483438;32;34024;-65
2021/12/21 03:57:04;;;;;;;2.72;1.50;;;;;;;-0.13;56.25;100514.16;4483749;32;34871;-66
2021/12/21 03:59:32;;;;;;;2.03;1.33;;;;;;;-0.49;55.64;100511.66;4483466;32;34539;-66
2021/12/21 04:02:00;;;;;;;3.55;1.73;;;;;;;-0.06;55.89;100520.50;4481921;32;34009;-65
2021/12/21 04:04:27;;;;;;;2.95;1.33;;;;;;;0.06;55.84;100512.22;4483587;32;34151;-66
2021/12/21 04:06:55;;;;;;;1.60;1.27;;;;;;;-0.12;55.83;100515.00;4483947;32;33975;-66
2021/12/21 04:09:22;;;;;;;2.80;1.50;;;;;;;-0.15;56.02;100517.97;4483294;32;33764;-66
2021/12/21 04:11:50;;;;;;;1.85;1.10;;;;;;;0.18;55.33;100514.44;4483660;32;34369;-66
2021/12/21 04:14:18;;;;;;;0.50;0.50;;;;;;;-0.27;56.46;100512.91;4483230;32;34292;-66
2021/12/21 04:16:46;;;;;;;2.50;1.35;;;;;;;-0.96;57.23;100506.66;4483413;32;35401;-66
2021/12/21 04:19:13;;;;;;;2.62;1.55;;;;;;;-0.78;57.28;100509.28;4483201;32;33551;-66
2021/12/21 04:21:41;;;;;;;2.00;1.12;;;;;;;-0.65;57.12;100520.38;4483903;32;35328;-66
2021/12/21 04:24:09;;;;;;;4.82;1.40;;;;;;;-0.23;55.79;100522.28;4483721;32;34086;-66
2021/12/21 04:26:36;;;;;;;3.65;1.35;;;;;;;0.08;54.85;100521.72;4483888;32;33964;-66
2021/12/21 04:29:04;;;;;;;2.40;1.40;;;;;;;-0.35;55.97;100526.19;4483013;32;33325;-66
2021/12/21 04:31:32;;;;;;;2.05;1.30;;;;;;;-0.33;55.88;100520.72;4483534;32;34031;-66
2021/12/21 04:34:00;;;;;;;1.77;1.40;;;;;;;-0.10;55.53;100540.50;4483316;32;34272;-66
2021/12/21 04:36:29;;;;;;;2.60;1.33;;;;;;;-0.22;55.66;100531.09;4483972;32;34223;-65
2021/12/21 04:38:58;;;;;;;2.55;1.48;;;;;;;0.10;54.68;100534.91;4482804;32;33499;-65
2021/12/21 04:41:28;;;;;;;2.50;1.40;;;;;;;-0.19;54.76;100537.94;4483940;32;34895;-65
2021/12/21 04:43:58;;;;;;;3.17;1.73;;;;;;;-0.32;55.54;100531.22;4482997;32;34102;-66
2021/12/21 04:46:27;;;;;;;2.53;1.62;;;;;;;-1.01;56.81;100534.78;4483461;32;33992;-66
2021/12/21 04:48:55;;;;;;;3.05;1.70;;;;;;;-1.17;58.00;100540.78;4483270;32;33696;-66
2021/12/21 04:51:22;;;;;;;2.60;1.27;;;;;;;-1.19;57.31;100546.25;4483442;32;34884;-66
2021/12/21 04:53:50;;;;;;;2.83;1.40;;;;;;;-0.58;55.87;100538.37;4483264;32;34327;-65
2021/12/21 04:56:17;;;;;;;3.80;1.50;;;;;;;-1.17;57.45;100536.28;4483528;32;35035;-65
2021/12/21 04:58:45;;;;;;;2.97;1.70;;;;;;;-1.59;58.50;100546.72;4482660;32;33714;-66
2021/12/21 05:01:12;;;;;;;4.50;2.00;;;;;;;-1.20;58.26;100551.75;4483329;32;34501;-66
2021/12/21 05:03:40;;;;;;;0.50;0.50;;;;;;;-0.83;57.41;100551.56;4483236;32;34979;-66
2021/12/21 05:06:07;;;;;;;0.50;0.50;;;;;;;-0.50;56.25;100554.44;4482718;32;33802;-65
2021/12/21 05:08:38;;;;;;;1.95;1.45;;;;;;;-0.72;56.10;100556.63;4482981;32;34502;-66
2021/12/21 05:11:07;;;;;;;1.70;1.40;;;;;;;-0.14;55.18;100565.81;4482878;32;34610;-65
2021/12/21 05:13:37;;;;;;;1.90;1.40;;;;;;;-0.21;55.02;100564.78;4483435;32;33979;-66
2021/12/21 05:16:05;;;;;;;3.35;1.58;;;;;;;-0.08;54.18;100559.84;4479438;32;34365;-67
2021/12/21 05:18:34;;;;;;;2.05;1.40;;;;;;;0.02;54.02;100564.22;4464732;32;34767;-65
2021/12/21 05:21:01;;;;;;;3.60;1.65;;;;;;;0.03;53.77;100563.25;4470254;32;34777;-67
2021/12/21 05:23:29;;;;;;;2.47;1.60;;;;;;;0.09;53.83;100578.63;4484831;32;34975;-66
2021/12/21 05:25:57;;;;;;;4.05;1.70;;;;;;;0.01;53.90;100579.41;4484669;32;33878;-65
2021/12/21 05:28:24;;;;;;;2.85;1.70;;;;;;;0.30;53.40;100581.69;4484451;32;33614;-66
2021/12/21 05:30:51;;;;;;;0.82;0.50;;;;;;;-0.08;54.03;100588.38;4485207;32;33620;-65
2021/12/21 05:33:19;;;;;;;0.40;0.40;;;;;;;0.25;53.11;100588.50;4484881;32;33991;-66
2021/12/21 05:35:48;;;;;;;3.33;1.77;;;;;;;0.49;52.41;100585.91;4485071;32;33949;-66
2021/12/21 05:38:23;;;;;;;0.50;0.50;;;;;;;0.16;53.36;100575.13;4484946;32;33441;-65
2021/12/21 05:40:50;;;;;;;0.50;0.50;;;;;;;0.43;52.57;100583.06;4484872;32;34028;-66
2021/12/21 05:43:18;;;;;;;3.30;1.62;;;;;;;-0.31;52.68;100570.22;4483656;32;34230;-65
2021/12/21 05:45:45;;;;;;;0.62;0.50;;;;;;;-0.03;53.14;100583.38;4482715;32;34485;-66
2021/12/21 05:48:14;;;;;;;3.20;1.67;;;;;;;0.44;52.93;100588.25;4469743;32;32946;-64
2021/12/21 05:50:41;;;;;;;4.85;2.67;;;;;;;0.19;51.84;100589.97;4484499;32;33869;-77
2021/12/21 05:53:09;;;;;;;3.25;2.20;;;;;;;0.03;52.00;100597.94;4484338;32;34176;-67
2021/12/21 05:55:37;;;;;;;4.93;2.37;;;;;;;0.18;52.96;100599.81;4484780;32;34406;-67
2021/12/21 05:58:04;;;;;;;4.60;2.17;;;;;;;0.17;51.72;100608.84;4484285;32;33793;-71
2021/12/21 06:00:33;;;;;;;6.62;2.65;;;;;;;0.01;51.75;100616.75;4484584;32;34878;-66
2021/12/21 06:03:01;;;;;;;5.12;2.30;;;;;;;0.05;51.20;100622.63;4483748;32;33811;-72
2021/12/21 06:05:29;;;;;;;4.87;2.20;;;;;;;-0.11;52.29;100624.19;4470504;32;34166;-71
2021/12/21 06:07:56;;;;;;;0.50;0.50;;;;;;;-0.30;52.33;100619.91;4484213;32;33660;-67
2021/12/21 06:10:30;;;;;;;0.60;0.60;;;;;;;-0.59;52.97;100630.00;4484461;32;34726;-64
2021/12/21 06:26:10;;;;;;;8.07;3.55;;;;;;;0.36;52.49;100663.78;4483275;32;34959;-64
2021/12/21 06:28:38;;;;;;;8.02;3.50;;;;;;;-0.07;53.74;100667.37;4484312;32;34489;-64
2021/12/21 06:31:06;;;;;;;1.10;0.77;;;;;;;-0.07;53.60;100667.37;4484447;32;33603;-64
2021/12/21 06:33:35;;;;;;;5.57;2.60;;;;;;;0.02;53.72;100668.28;4483662;32;34361;-64
2021/12/21 06:36:03;;;;;;;3.28;1.90;;;;;;;-0.13;54.35;100676.00;4484503;32;34174;-70
2021/12/21 06:38:31;;;;;;;4.90;1.85;;;;;;;-0.11;54.02;100676.69;4466967;32;33339;-67
2021/12/21 06:40:59;;;;;;;1.67;1.60;;;;;;;0.17;53.42;100670.22;4479703;32;33734;-66
2021/12/21 06:43:27;;;;;;;5.57;2.87;;;;;;;-0.03;53.96;100687.41;4483921;32;34960;-66
2021/12/21 06:46:12;;;;;;;4.45;2.33;;;;;;;-0.08;54.67;100673.72;4470134;32;33962;-67
2021/12/21 06:51:41;;;;;;;4.55;2.28;;;;;;;0.07;54.41;100671.31;4484274;32;33993;-67
2021/12/21 06:54:09;;;;;;;3.67;2.03;;;;;;;0.22;54.66;100680.41;4483912;32;34460;-64
2021/12/21 06:56:36;;;;;;;4.57;2.78;;;;;;;0.28;54.20;100677.13;4484171;32;35096;-72
2021/12/21 06:59:04;;;;;;;5.60;3.47;;;;;;;0.20;53.93;100683.22;4466710;32;32803;-68
2021/12/21 07:01:33;;;;;;;5.57;3.15;;;;;;;0.44;53.60;100686.19;4468450;32;34036;-65
2021/12/21 07:04:01;;;;;;;5.53;3.20;;;;;;;0.32;53.03;100686.44;4474799;32;34341;-65
2021/12/21 07:06:29;;;;;;;0.50;0.50;;;;;;;0.42;52.92;100689.00;4484185;32;34180;-66
2021/12/21 07:09:04;;;;;;;8.13;3.55;;;;;;;-0.17;55.00;100701.31;4483548;32;33699;-66
2021/12/21 07:19:36;;;;;;;9.27;4.43;;;;;;;-0.08;54.76;100697.72;4479403;32;33844;-68
2021/12/21 07:22:05;;;;;;;1.50;1.40;;;;;;;-0.13;55.43;100698.22;4463715;32;33698;-67
2021/12/21 07:24:33;;;;;;;6.93;3.47;;;;;;;0.35;55.04;100699.50;4483770;32;34112;-67
2021/12/21 07:27:00;;;;;;;5.72;2.55;;;;;;;0.13;53.16;100692.00;4483845;32;35096;-66
2021/12/21 07:29:28;;;;;;;4.30;2.35;;;;;;;-0.02;54.65;100694.44;4483868;32;34735;-71
2021/12/21 07:31:55;;;;;;;6.62;2.65;;;;;;;-0.44;55.99;100697.78;4482998;32;33877;-67
2021/12/21 07:34:23;;;;;;;4.78;2.28;;;;;;;-0.10;55.16;100697.06;4481777;32;34232;-67
2021/12/21 07:36:50;;;;;;;6.30;2.78;;;;;;;0.06;55.01;100693.63;4483306;32;34719;-66
2021/12/21 07:39:18;;;;;;;0.50;0.50;;;;;;;-0.19;56.22;100705.97;4483812;32;32476;-66
2021/12/21 07:42:06;;;;;;;0.50;0.50;;;;;;;-0.19;55.99;100712.16;4483538;32;34346;-65
2021/12/21 07:44:33;;;;;;;6.22;2.87;;;;;;;-0.02;56.13;100702.44;4483825;32;35296;-67
2021/12/21 07:47:01;;;;;;;7.22;3.28;;;;;;;-0.25;56.40;100707.44;4483011;32;35026;-66
2021/12/21 07:49:29;;;;;;;6.15;3.15;;;;;;;0.30;54.49;100703.62;4467545;32;34564;-65
2021/12/21 07:51:57;;;;;;;5.32;3.30;;;;;;;0.40;55.39;100704.34;4474186;32;34578;-66
2021/12/21 07:54:24;;;;;;;5.30;3.00;;;;;;;0.79;54.11;100706.53;4484119;32;33859;-66
2021/12/21 07:56:52;;;;;;;12.65;6.85;;;;;;;0.52;54.72;100710.22;4482720;32;33866;-67
2021/12/21 07:59:19;;;;;;;19.37;8.27;;;;;;;1.21;54.25;100711.00;4482819;32;34466;-66
2021/12/21 08:01:47;;;;;;;1.37;1.27;;;;;;;1.53;52.51;100710.19;4482276;32;33790;-66
2021/12/21 08:04:15;;;;;;;12.57;4.78;;;;;;;1.88;51.57;100712.69;4482513;32;34884;-66
2021/12/21 08:06:46;;;;;;;0.90;0.90;;;;;;;1.89;53.00;100711.69;4482273;32;34540;-66
2021/12/21 08:09:14;;;;;;;0.85;0.82;;;;;;;2.06;51.38;100708.00;4482085;32;33472;-66
2021/12/21 08:14:09;;;;;;;0.60;0.60;;;;;;;2.27;50.87;100715.50;4482328;32;35029;-64
2021/12/21 08:16:37;;;;;;;8.05;4.57;;;;;;;2.46;49.75;100714.25;4481587;32;34197;-69
2021/12/21 08:19:04;;;;;;;5.82;2.95;;;;;;;2.65;50.28;100716.53;4480787;32;33749;-67
2021/12/21 08:21:32;;;;;;;5.62;2.87;;;;;;;2.81;49.70;100717.50;4482650;32;33628;-67
2021/12/21 08:24:00;;;;;;;7.87;3.53;;;;;;;2.91;50.68;100717.28;4478235;32;35137;-68
2021/12/21 08:26:28;;;;;;;7.97;4.12;;;;;;;3.45;49.24;100720.81;4480353;32;34191;-68
2021/12/21 08:28:55;;;;;;;6.68;3.58;;;;;;;3.56;48.47;100718.72;4481763;32;33684;-66
2021/12/21 08:31:23;;;;;;;4.87;3.08;;;;;;;3.98;47.24;100718.22;4481246;32;33652;-66
2021/12/21 08:33:50;;;;;;;5.12;3.03;;;;;;;4.36;46.78;100711.97;4481361;32;34243;-69
2021/12/21 08:36:18;;;;;;;4.32;2.30;;;;;;;4.35;46.30;100711.13;4482084;32;33863;-64
2021/12/21 08:38:49;;;;;;;6.65;3.20;;;;;;;4.75;45.16;100722.41;4479614;32;33321;-65
2021/12/21 08:41:16;;;;;;;4.40;2.60;;;;;;;5.06;44.68;100721.37;4482419;32;34113;-65
2021/12/21 08:43:44;;;;;;;6.62;3.12;;;;;;;5.57;43.07;100723.16;4481443;32;35703;-66
2021/12/21 08:46:11;;;;;;;5.60;2.60;;;;;;;6.19;41.94;100727.06;4481471;32;34923;-67
2021/12/21 08:48:39;;;;;;;5.45;2.90;;;;;;;6.55;40.67;100726.88;4484033;32;33204;-66
2021/12/21 08:51:07;;;;;;;6.00;2.50;;;;;;;6.46;41.33;100726.22;4484421;32;32932;-68
2021/12/21 08:53:36;;;;;;;4.12;2.28;;;;;;;6.59;40.99;100728.16;4485403;32;34261;-68
2021/12/21 08:56:04;;;;;;;3.60;2.30;;;;;;;6.44;41.76;100735.53;4486328;32;34235;-65
2021/12/21 08:58:31;;;;;;;4.45;2.62;;;;;;;5.78;42.23;100730.41;4487266;32;33776;-66
2021/12/21 09:00:59;;;;;;;4.85;2.50;;;;;;;6.21;41.40;100733.91;4485935;32;33664;-66
2021/12/21 09:03:26;;;;;;;7.22;3.20;;;;;;;6.74;41.29;100733.44;4484698;32;34142;-65
2021/12/21 09:05:54;;;;;;;5.93;2.55;;;;;;;7.51;40.36;100736.81;4485784;32;34000;-66
2021/12/21 09:08:22;;;;;;;5.62;3.05;;;;;;;7.44;40.36;100739.50;4486196;32;33647;-66
2021/12/21 09:10:49;;;;;;;6.03;3.00;;;;;;;8.14;39.37;100748.13;4483341;32;34037;-65
2021/12/21 09:13:17;;;;;;;4.10;2.50;;;;;;;8.45;38.44;100741.25;4485523;32;34178;-65
2021/12/21 09:15:45;;;;;;;4.57;2.33;;;;;;;8.08;39.32;100740.00;4486249;32;35095;-66
2021/12/21 09:18:12;;;;;;;4.82;2.60;;;;;;;7.87;39.64;100738.34;4486186;32;34408;-65
2021/12/21 09:20:39;;;;;;;5.65;2.87;;;;;;;7.58;39.76;100743.06;4486244;32;33813;-66
2021/12/21 09:23:07;;;;;;;4.80;2.95;;;;;;;7.23;40.66;100740.47;4486033;32;34155;-66
2021/12/21 09:25:34;;;;;;;5.35;2.90;;;;;;;6.45;42.08;100742.56;4479022;32;34967;-65
2021/12/21 09:28:02;;;;;;;5.65;3.00;;;;;;;7.79;39.77;100736.66;4476193;32;33380;-65
2021/12/21 09:30:29;;;;;;;7.18;3.45;;;;;;;7.39;41.06;100728.50;4473615;32;33925;-66
2021/12/21 09:32:58;;;;;;;7.45;3.72;;;;;;;6.55;42.80;100724.19;4476920;32;34222;-65
2021/12/21 09:35:27;;;;;;;4.53;2.70;;;;;;;6.98;41.70;100735.63;4475504;32;34712;-69
2021/12/21 09:37:55;;;;;;;4.65;3.00;;;;;;;4.02;47.69;100726.75;4463884;32;33600;-67
2021/12/21 09:40:27;;;;;;;4.20;2.90;;;;;;;3.25;51.41;100727.66;4462647;32;32903;-68
2021/12/21 09:42:57;;;;;;;3.95;2.58;;;;;;;4.34;48.07;100727.44;4464119;32;34246;-68
2021/12/21 09:45:25;;;;;;;5.53;2.85;;;;;;;4.82;46.33;100730.59;4460009;32;34726;-69
2021/12/21 09:47:52;;;;;;;5.95;2.53;;;;;;;4.71;47.40;100730.06;4468983;32;34915;-68
2021/12/21 09:50:22;;;;;;;3.60;2.58;;;;;;;5.22;46.56;100729.22;4474476;32;33785;-66
2021/12/21 09:52:49;;;;;;;5.90;3.20;;;;;;;4.97;47.02;100717.97;4472661;32;34291;-66
2021/12/21 09:55:19;;;;;;;4.72;2.55;;;;;;;4.14;48.88;100717.22;4464301;32;34486;-67
2021/12/21 09:57:48;;;;;;;4.93;2.97;;;;;;;4.32;48.84;100708.84;4471346;32;34548;-65
2021/12/21 10:00:20;;;;;;;5.22;2.37;;;;;;;3.38;51.26;100713.66;4467775;32;35003;-66
2021/12/21 10:02:47;;;;;;;3.47;2.60;;;;;;;3.37;50.74;100704.78;4461916;32;34259;-66
2021/12/21 10:05:20;;;;;;;4.95;2.70;;;;;;;4.62;48.22;100708.81;4460974;32;34065;-67
2021/12/21 10:07:56;;;;;;;3.70;2.45;;;;;;;4.25;48.63;100706.03;4454194;32;33709;-66
2021/12/21 10:10:23;;;;;;;6.55;2.72;;;;;;;4.47;47.91;100706.12;4453679;32;34591;-65
2021/12/21 10:12:53;;;;;;;5.90;3.10;;;;;;;4.96;47.28;100702.84;4443211;32;35018;-66
2021/12/21 10:15:23;;;;;;;5.62;3.12;;;;;;;5.10;46.94;100706.53;4463414;32;32917;-66
2021/12/21 10:17:52;;;;;;;4.32;2.30;;;;;;;5.46;46.63;100697.59;4458001;32;33316;-65
2021/12/21 10:20:46;;;;;;;4.45;2.90;;;;;;;4.56;47.97;100699.66;4467151;32;33652;-66
2021/12/21 10:23:23;;;;;;;4.35;2.55;;;;;;;4.46;48.30;100699.09;4472458;32;34067;-66
2021/12/21 10:25:59;;;;;;;4.18;2.30;;;;;;;4.27;48.50;100695.94;4477658;31;35077;-66
2021/12/21 10:28:38;;;;;;;4.30;2.60;;;;;;;5.47;45.78;100686.62;4476826;32;33488;-66
2021/12/21 10:31:36;;;;;;;3.60;2.42;;;;;;;5.95;45.16;100684.19;4480737;32;34052;-66
2021/12/21 10:34:06;;;;;;;4.50;2.53;;;;;;;5.76;45.53;100682.13;4460374;32;33516;-67
2021/12/21 10:36:42;;;;;;;5.03;2.90;;;;;;;5.97;44.38;100686.69;4450941;32;34152;-66
2021/12/21 10:39:09;;;;;;;4.37;2.50;;;;;;;5.08;46.92;100677.13;4461097;32;33770;-67
2021/12/21 10:41:41;;;;;;;6.10;2.67;;;;;;;5.41;45.89;100678.50;4460428;32;33238;-66
2021/12/21 10:44:11;;;;;;;3.42;2.37;;;;;;;5.29;46.70;100679.03;4451297;32;33876;-67
2021/12/21 10:46:44;;;;;;;7.32;3.42;;;;;;;6.05;45.56;100672.25;4462768;32;34360;-66
2021/12/21 10:49:32;;;;;;;6.15;2.78;;;;;;;5.24;44.75;100667.16;4462639;32;33562;-66
2021/12/21 10:52:07;;;;;;;5.37;2.95;;;;;;;5.34;45.87;100660.44;4464783;32;34854;-64
2021/12/21 10:54:41;;;;;;;4.12;2.53;;;;;;;5.10;46.69;100660.81;4450356;32;35061;-70
2021/12/21 10:57:17;;;;;;;6.35;3.08;;;;;;;4.61;48.29;100667.66;4463714;32;34170;-68
2021/12/21 10:59:49;;;;;;;5.68;3.10;;;;;;;4.28;49.31;100659.19;4462429;32;33384;-68
2021/12/21 11:02:28;;;;;;;5.95;3.20;;;;;;;4.02;49.82;100659.62;4462877;32;34714;-69
2021/12/21 11:05:08;;;;;;;5.07;2.80;;;;;;;3.17;51.34;100668.69;4472714;31;34938;-69
2021/12/21 11:07:46;;;;;;;5.35;2.75;;;;;;;4.19;49.26;100655.75;4482576;31;34485;-69
2021/12/21 11:10:19;;;;;;;4.07;2.58;;;;;;;3.62;50.46;100653.59;4485368;31;33284;-68
2021/12/21 11:13:11;;;;;;;5.40;3.42;;;;;;;3.42;50.23;100646.06;4485078;31;34578;-66
2021/12/21 11:15:44;;;;;;;6.87;2.95;;;;;;;4.03;50.55;100647.84;4483184;31;35467;-69
2021/12/21 11:18:13;;;;;;;7.97;4.03;;;;;;;3.98;49.58;100642.22;4484236;31;34238;-65
2021/12/21 11:20:43;;;;;;;4.85;3.50;;;;;;;3.78;50.07;100637.37;4485905;31;35206;-71
2021/12/21 11:23:15;;;;;;;5.72;3.45;;;;;;;4.10;50.49;100640.72;4480952;32;33888;-70
2021/12/21 11:25:46;;;;;;;5.95;2.75;;;;;;;4.39;48.94;100636.38;4481252;31;32949;-69
2021/12/21 11:28:21;;;;;;;4.72;2.90;;;;;;;4.25;49.17;100635.34;4483252;31;33912;-65
2021/12/21 11:30:49;;;;;;;4.10;2.30;;;;;;;4.31;48.30;100631.94;4481252;31;33843;-64
2021/12/21 11:33:18;;;;;;;4.68;2.70;;;;;;;4.44;48.69;100628.59;4476098;32;34080;-64
2021/12/21 11:38:33;;;;;;;4.85;2.90;;;;;;;5.89;45.30;100628.38;4485381;31;34248;-64
2021/12/21 11:41:00;;;;;;;4.87;2.47;;;;;;;5.61;44.63;100631.06;4487312;31;33717;-65
2021/12/21 11:43:36;;;;;;;4.28;2.60;;;;;;;5.51;46.42;100642.16;4485266;31;34820;-64
2021/12/21 11:46:11;;;;;;;4.10;2.28;;;;;;;3.73;48.73;100631.69;4481362;31;35113;-64
2021/12/21 11:49:10;;;;;;;5.23;2.77;;;;;;;4.43;47.40;100632.31;4475225;31;34940;-63
2021/12/21 11:51:37;;;;;;;5.25;2.78;;;;;;;3.36;49.98;100627.16;4469186;32;33683;-64
2021/12/21 11:54:16;;;;;;;4.60;2.42;;;;;;;3.81;49.82;100623.56;4480891;31;34487;-63
2021/12/21 11:56:44;;;;;;;4.50;2.80;;;;;;;3.87;48.26;100625.53;4477640;32;34845;-64
2021/12/21 11:59:21;;;;;;;4.87;3.10;;;;;;;3.95;49.15;100626.44;4482965;31;35387;-65
2021/12/21 12:01:49;;;;;;;5.65;3.37;;;;;;;4.26;48.92;100621.75;4480281;32;33980;-67
2021/12/21 12:04:17;;;;;;;4.50;3.17;;;;;;;4.24;49.32;100613.03;4482552;31;34687;-66
2021/12/21 12:06:47;;;;;;;6.65;3.20;;;;;;;4.84;47.93;100621.03;4481808;31;34856;-66
2021/12/21 12:09:32;;;;;;;4.70;2.90;;;;;;;3.98;48.30;100618.88;4484630;31;34201;-66
2021/12/21 12:12:11;;;;;;;6.32;3.10;;;;;;;4.86;46.94;100622.47;4482488;31;33723;-65
2021/12/21 12:14:41;;;;;;;3.80;2.87;;;;;;;4.16;48.37;100618.50;4478853;32;33838;-65
2021/12/21 12:17:17;;;;;;;5.80;3.03;;;;;;;4.06;48.70;100623.31;4482152;32;33850;-65
2021/12/21 12:19:58;;;;;;;4.45;2.83;;;;;;;3.66;50.14;100606.63;4482416;32;33813;-65
2021/12/21 12:22:40;;;;;;;5.35;3.05;;;;;;;3.43;51.09;100615.53;4483016;31;33342;-65
2021/12/21 12:25:19;;;;;;;4.70;2.70;;;;;;;3.73;50.32;100606.72;4479656;32;33355;-65
2021/12/21 12:27:50;;;;;;;5.37;3.20;;;;;;;4.37;48.53;100609.69;4482378;32;34027;-65
2021/12/21 12:30:23;;;;;;;5.65;3.53;;;;;;;5.00;46.90;100609.19;4482110;32;35014;-65
2021/12/21 12:33:05;;;;;;;6.00;3.87;;;;;;;5.07;46.75;100615.44;4482643;32;33687;-65
2021/12/21 12:35:34;;;;;;;4.32;2.97;;;;;;;5.37;45.91;100608.06;4482577;32;34142;-65
2021/12/21 12:38:17;;;;;;;4.28;2.67;;;;;;;5.08;45.14;100617.13;4482561;32;34380;-65
2021/12/21 12:40:53;;;;;;;4.32;2.62;;;;;;;5.93;43.70;100616.16;4482081;32;34221;-66
2021/12/21 12:43:26;;;;;;;5.68;3.00;;;;;;;4.92;44.71;100623.56;4482417;31;33752;-66
2021/12/21 12:46:04;;;;;;;5.35;2.92;;;;;;;4.80;45.16;100617.03;4467149;32;32683;-65
2021/12/21 12:48:38;;;;;;;4.15;2.28;;;;;;;5.19;44.27;100616.63;4467991;32;34077;-65
2021/12/21 12:51:07;;;;;;;3.80;2.20;;;;;;;4.43;46.48;100614.31;4483693;31;34220;-64
2021/12/21 12:53:37;;;;;;;5.35;2.83;;;;;;;5.42;44.00;100612.88;4479163;31;33535;-66